createdAt,value
2023-01-02T00:01:05.742Z,12.43
2023-01-02T00:03:33.473Z,10.43
2023-01-02T00:06:05.639Z,14.35
2023-01-02T00:08:33.514Z,11.23
2023-01-02T00:11:01.014Z,7.55
2023-01-02T00:13:28.669Z,12.50
2023-01-02T00:15:56.225Z,8.38
2023-01-02T00:18:23.919Z,14.73
2023-01-02T00:20:51.603Z,11.43
2023-01-02T00:23:19.279Z,10.60
2023-01-02T00:25:50.034Z,13.50
2023-01-02T00:28:18.151Z,11.65
2023-01-02T00:30:45.691Z,9.90
2023-01-02T00:33:13.255Z,12.85
2023-01-02T00:35:40.777Z,9.68
2023-01-02T00:38:08.681Z,14.10
2023-01-02T00:40:36.377Z,12.82
2023-01-02T00:43:04.307Z,8.98
2023-01-02T00:45:32.719Z,10.88
2023-01-02T00:48:00.286Z,9.30
2023-01-02T00:50:27.920Z,14.13
2023-01-02T00:52:55.569Z,14.63
2023-01-02T00:55:23.088Z,8.27
2023-01-02T00:57:50.695Z,9.13
2023-01-02T01:00:23.684Z,10.27
2023-01-02T01:02:56.907Z,12.20
2023-01-02T01:05:26.317Z,7.78
2023-01-02T01:07:57.793Z,8.02
2023-01-02T01:10:26.812Z,9.05
2023-01-02T01:12:54.481Z,13.70
2023-01-02T01:15:22.171Z,11.00
2023-01-02T01:17:49.721Z,10.43
2023-01-02T01:20:17.417Z,8.27
2023-01-02T01:22:45.015Z,8.43
2023-01-02T01:25:12.986Z,8.43
2023-01-02T01:27:40.494Z,10.02
2023-01-02T01:30:08.509Z,10.60
2023-01-02T01:32:36.280Z,14.25
2023-01-02T01:35:04.589Z,6.60
2023-01-02T01:37:32.165Z,7.15
2023-01-02T01:39:59.932Z,10.38
2023-01-02T01:42:35.097Z,9.98
2023-01-02T01:45:02.849Z,5.50
2023-01-02T01:47:40.043Z,16.27
2023-01-02T01:50:14.793Z,9.13
2023-01-02T01:52:49.952Z,11.55
2023-01-02T01:55:33.011Z,16.00
2023-01-02T01:58:11.583Z,9.60
2023-01-02T02:00:41.679Z,13.93
2023-01-02T02:03:13.974Z,10.48
2023-01-02T02:05:43.708Z,11.30
2023-01-02T02:08:24.445Z,19.30
2023-01-02T02:10:54.968Z,9.13
2023-01-02T02:13:23.154Z,11.30
2023-01-02T02:16:22.440Z,14.50
2023-01-02T02:19:28.352Z,11.77
2023-01-02T02:21:55.993Z,18.83
2023-01-02T02:24:38.276Z,8.73
2023-01-02T02:27:20.995Z,9.68
2023-01-02T02:30:16.780Z,9.27
2023-01-02T02:32:47.179Z,5.18
2023-01-02T02:35:27.111Z,7.90
2023-01-02T02:38:14.782Z,16.70
2023-01-02T02:41:04.565Z,7.45
2023-01-02T02:43:46.903Z,21.65
2023-01-02T02:46:35.203Z,9.20
2023-01-02T02:49:27.925Z,6.93
2023-01-02T02:52:29.207Z,5.78
2023-01-02T02:55:22.563Z,5.03
2023-01-02T02:57:51.528Z,9.48
2023-01-02T03:00:22.427Z,6.60
2023-01-02T03:02:50.496Z,2.90
2023-01-02T03:05:37.789Z,6.43
2023-01-02T03:08:23.996Z,8.93
2023-01-02T03:11:01.780Z,7.40
2023-01-02T03:13:29.292Z,7.65
2023-01-02T03:16:18.560Z,6.25
2023-01-02T03:18:52.644Z,7.15
2023-01-02T03:21:31.503Z,7.65
2023-01-02T03:24:04.443Z,9.27
2023-01-02T03:26:34.825Z,5.45
2023-01-02T03:29:11.228Z,6.38
2023-01-02T03:31:42.407Z,5.93
2023-01-02T03:34:21.503Z,5.88
2023-01-02T03:36:54.097Z,9.32
2023-01-02T03:39:26.753Z,9.23
2023-01-02T03:42:03.217Z,4.43
2023-01-02T03:44:58.504Z,9.50
2023-01-02T03:47:44.330Z,7.05
2023-01-02T03:50:19.570Z,6.00
2023-01-02T03:52:47.334Z,7.43
2023-01-02T03:55:15.808Z,12.52
2023-01-02T03:58:03.872Z,6.03
2023-01-02T04:00:45.165Z,5.85
2023-01-02T04:03:21.715Z,7.35
2023-01-02T04:05:56.598Z,6.88
2023-01-02T04:09:00.551Z,8.55
2023-01-02T04:11:30.495Z,7.60
2023-01-02T04:16:34.457Z,8.98
2023-01-02T04:19:09.828Z,5.97
2023-01-02T04:21:40.622Z,6.00
2023-01-02T04:24:14.564Z,6.75
2023-01-02T04:26:47.321Z,6.20
2023-01-02T04:29:15.093Z,9.18
2023-01-02T04:31:53.596Z,7.97
2023-01-02T04:34:23.462Z,5.57
2023-01-02T04:39:21.382Z,6.13
2023-01-02T04:41:49.930Z,6.25
2023-01-02T04:44:17.670Z,5.05
2023-01-02T04:46:45.263Z,6.43
2023-01-02T04:49:12.872Z,5.97
2023-01-02T04:51:40.496Z,7.75
2023-01-02T04:54:11.675Z,3.92
2023-01-02T04:56:39.454Z,7.85
2023-01-02T04:59:07.096Z,6.65
2023-01-02T05:01:34.847Z,5.72
2023-01-02T05:04:02.492Z,8.25
2023-01-02T05:06:30.067Z,5.55
2023-01-02T05:08:58.840Z,5.63
2023-01-02T05:11:26.404Z,7.32
2023-01-02T05:13:53.937Z,8.13
2023-01-02T05:16:21.579Z,8.45
2023-01-02T05:18:49.196Z,9.13
2023-01-02T05:21:35.203Z,6.07
2023-01-02T05:24:03.611Z,8.55
2023-01-02T05:26:33.075Z,4.35
2023-01-02T05:29:01.237Z,5.60
2023-01-02T05:31:29.424Z,6.07
2023-01-02T05:33:59.076Z,8.70
2023-01-02T05:36:27.417Z,7.13
2023-01-02T05:38:55.197Z,12.48
2023-01-02T05:41:23.473Z,6.88
2023-01-02T05:43:51.950Z,7.45
2023-01-02T05:46:20.999Z,11.20
2023-01-02T05:48:48.913Z,8.55
2023-01-02T05:51:17.561Z,8.27
2023-01-02T05:53:47.988Z,9.27
2023-01-02T05:56:17.922Z,8.68
2023-01-02T06:01:21.484Z,6.05
2023-01-02T06:03:51.226Z,6.78
2023-01-02T06:06:21.172Z,6.53
2023-01-02T06:11:17.582Z,5.25
2023-01-02T06:13:45.085Z,6.55
2023-01-02T06:16:12.993Z,5.60
2023-01-02T06:18:41.050Z,4.75
2023-01-02T06:21:12.277Z,5.78
2023-01-02T06:23:40.659Z,8.60
2023-01-02T06:26:11.117Z,6.85
2023-01-02T06:28:39.025Z,7.15
2023-01-02T06:31:09.913Z,6.72
2023-01-02T06:33:38.048Z,5.28
2023-01-02T06:36:11.535Z,5.93
2023-01-02T06:38:39.843Z,8.13
2023-01-02T06:41:08.704Z,5.40
2023-01-02T06:43:41.570Z,7.67
2023-01-02T06:46:11.333Z,12.45
2023-01-02T06:48:39.658Z,11.07
2023-01-02T06:51:09.362Z,8.23
2023-01-02T06:53:39.589Z,7.72
2023-01-02T06:56:07.967Z,11.82
2023-01-02T06:58:37.071Z,7.43
2023-01-02T07:01:16.293Z,10.23
2023-01-02T07:03:44.624Z,6.90
2023-01-02T07:06:17.496Z,5.28
2023-01-02T07:08:45.763Z,5.28
2023-01-02T07:11:22.616Z,4.00
2023-01-02T07:13:51.982Z,6.43
2023-01-02T07:16:21.908Z,7.13
2023-01-02T07:18:51.259Z,5.38
2023-01-02T07:21:18.847Z,7.60
2023-01-02T07:23:46.625Z,5.07
2023-01-02T07:26:14.552Z,4.28
2023-01-02T07:28:45.819Z,6.90
2023-01-02T07:31:16.350Z,7.72
2023-01-02T07:33:44.471Z,5.78
2023-01-02T07:36:19.645Z,5.60
2023-01-02T07:38:51.687Z,5.85
2023-01-02T07:41:22.124Z,7.38
2023-01-02T07:43:50.136Z,4.43
2023-01-02T07:46:19.663Z,8.05
2023-01-02T07:48:50.427Z,4.63
2023-01-02T07:51:24.543Z,5.83
2023-01-02T07:53:56.788Z,5.57
2023-01-02T07:56:25.590Z,4.55
2023-01-02T07:58:53.276Z,6.95
2023-01-02T08:01:21.361Z,5.65
2023-01-02T08:03:49.227Z,5.93
2023-01-02T08:06:19.595Z,5.47
2023-01-02T08:08:47.989Z,4.90
2023-01-02T08:11:19.134Z,4.90
2023-01-02T08:13:47.646Z,4.80
2023-01-02T08:16:18.495Z,4.97
2023-01-02T08:18:47.222Z,5.85
2023-01-02T08:21:15.149Z,7.07
2023-01-02T08:23:42.895Z,5.97
2023-01-02T08:26:11.167Z,5.63
2023-01-02T08:28:40.898Z,7.20
2023-01-02T08:31:15.245Z,7.47
2023-01-02T08:33:44.021Z,11.38
2023-01-02T08:36:12.055Z,5.53
2023-01-02T08:38:39.810Z,7.20
2023-01-02T08:41:07.992Z,7.38
2023-01-02T08:43:36.446Z,5.53
2023-01-02T08:46:08.451Z,10.77
2023-01-02T08:48:36.342Z,8.05
2023-01-02T08:51:05.155Z,9.35
2023-01-02T08:53:32.957Z,6.32
2023-01-02T08:56:20.432Z,5.78
2023-01-02T08:58:56.280Z,8.63
2023-01-02T09:01:26.038Z,3.25
2023-01-02T09:06:22.735Z,6.47
2023-01-02T09:08:57.972Z,5.60
2023-01-02T09:11:29.153Z,6.13
2023-01-02T09:13:58.486Z,4.57
2023-01-02T09:16:26.830Z,7.22
2023-01-02T09:18:57.503Z,8.52
2023-01-02T09:21:25.268Z,5.82
2023-01-02T09:23:52.830Z,4.78
2023-01-02T09:26:20.889Z,4.57
2023-01-02T09:28:48.427Z,6.40
2023-01-02T09:31:17.064Z,4.47
2023-01-02T09:33:45.823Z,4.88
2023-01-02T09:36:15.466Z,6.72
2023-01-02T09:38:43.405Z,5.10
2023-01-02T09:41:27.107Z,4.43
2023-01-02T09:44:02.815Z,4.32
2023-01-02T09:46:49.413Z,5.43
2023-01-02T09:49:27.350Z,5.35
2023-01-02T09:51:55.125Z,6.47
2023-01-02T09:54:28.946Z,6.38
2023-01-02T09:57:22.559Z,5.35
2023-01-02T10:00:18.564Z,5.90
2023-01-02T10:03:07.354Z,4.88
2023-01-02T10:05:50.716Z,7.30
2023-01-02T10:08:49.101Z,10.38
2023-01-02T10:11:23.409Z,12.35
2023-01-02T10:16:52.177Z,7.13
2023-01-02T10:20:01.810Z,4.07
2023-01-02T10:22:37.948Z,4.57
2023-01-02T10:25:23.174Z,3.60
2023-01-02T10:27:56.566Z,2.17
2023-01-02T10:30:27.126Z,4.72
2023-01-02T10:33:05.545Z,3.78
2023-01-02T10:35:39.161Z,5.20
2023-01-02T10:38:06.778Z,4.60
2023-01-02T10:40:36.108Z,3.92
2023-01-02T10:43:03.759Z,2.50
2023-01-02T10:45:33.468Z,3.67
2023-01-02T10:48:01.350Z,4.30
2023-01-02T10:50:36.250Z,2.45
2023-01-02T10:53:37.496Z,5.00
2023-01-02T10:56:25.658Z,6.15
2023-01-02T10:58:53.434Z,4.15
2023-01-02T11:01:22.539Z,5.03
2023-01-02T11:04:11.717Z,5.85
2023-01-02T11:06:51.315Z,3.33
2023-01-02T11:09:22.316Z,3.60
2023-01-02T11:12:08.765Z,3.47
2023-01-02T11:14:37.521Z,7.35
2023-01-02T11:17:18.352Z,9.95
2023-01-02T11:19:48.972Z,4.90
2023-01-02T11:22:19.893Z,4.78
2023-01-02T11:25:02.129Z,3.15
2023-01-02T11:27:33.676Z,5.28
2023-01-02T11:30:02.738Z,4.55
2023-01-02T11:32:38.710Z,13.23
2023-01-02T11:35:27.224Z,15.40
2023-01-02T11:37:55.837Z,25.05
2023-01-02T11:40:30.807Z,13.57
2023-01-02T11:43:23.690Z,20.90
2023-01-02T11:45:52.603Z,11.00
2023-01-02T11:48:23.146Z,12.02
2023-01-02T11:50:53.003Z,14.43
2023-01-02T11:55:56.940Z,3.47
2023-01-02T11:58:30.652Z,5.30
2023-01-02T12:01:27.105Z,3.30
2023-01-02T12:03:55.281Z,2.22
2023-01-02T12:06:48.239Z,6.45
2023-01-02T12:09:45.155Z,11.20
2023-01-02T12:12:50.114Z,5.90
2023-01-02T12:15:40.132Z,3.28
2023-01-02T12:18:26.292Z,2.10
2023-01-02T12:21:07.275Z,1.98
2023-01-02T12:24:13.861Z,1.38
2023-01-02T12:27:04.270Z,1.90
2023-01-02T12:29:59.512Z,3.30
2023-01-02T12:33:00.903Z,5.03
2023-01-02T12:35:28.458Z,0.68
2023-01-02T12:38:03.189Z,0.85
2023-01-02T12:40:36.825Z,1.95
2023-01-02T12:43:32.351Z,1.52
2023-01-02T12:46:11.782Z,1.80
2023-01-02T12:49:17.084Z,4.80
2023-01-02T12:51:50.547Z,1.95
2023-01-02T12:54:24.122Z,0.85
2023-01-02T12:56:54.803Z,0.75
2023-01-02T12:59:44.164Z,2.88
2023-01-02T13:02:20.495Z,4.57
2023-01-02T13:04:55.792Z,1.83
2023-01-02T13:07:40.011Z,5.82
2023-01-02T13:10:15.043Z,1.65
2023-01-02T13:12:44.447Z,4.63
2023-01-02T13:15:12.735Z,2.30
2023-01-02T13:17:58.181Z,0.88
2023-01-02T13:20:37.748Z,1.52
2023-01-02T13:23:23.890Z,1.25
2023-01-02T13:26:00.111Z,3.33
2023-01-02T13:28:27.733Z,3.33
2023-01-02T13:33:54.746Z,3.13
2023-01-02T13:36:37.251Z,1.43
2023-01-02T13:39:32.667Z,1.50
2023-01-02T13:42:22.596Z,2.25
2023-01-02T13:44:54.148Z,4.97
2023-01-02T13:47:36.488Z,3.13
2023-01-02T13:50:13.268Z,5.38
2023-01-02T13:52:41.536Z,3.03
2023-01-02T13:55:10.188Z,3.17
2023-01-02T13:57:38.239Z,2.28
2023-01-02T14:00:35.989Z,2.75
2023-01-02T14:03:21.932Z,3.60
2023-01-02T14:06:06.209Z,2.75
2023-01-02T14:08:36.907Z,2.95
2023-01-02T14:11:07.975Z,1.48
2023-01-02T14:13:38.545Z,2.33
2023-01-02T14:16:24.871Z,3.28
2023-01-02T14:19:16.546Z,2.60
2023-01-02T14:21:57.873Z,2.15
2023-01-02T14:24:44.325Z,3.35
2023-01-02T14:27:15.155Z,2.35
2023-01-02T14:29:53.328Z,1.48
2023-01-02T14:32:27.639Z,2.92
2023-01-02T14:34:58.240Z,1.38
2023-01-02T14:37:32.640Z,3.03
2023-01-02T14:40:23.581Z,2.20
2023-01-02T14:43:14.648Z,2.92
2023-01-02T14:45:56.101Z,4.60
2023-01-02T14:48:34.437Z,3.67
2023-01-02T14:51:12.997Z,1.75
2023-01-02T14:54:24.323Z,2.58
2023-01-02T14:56:56.246Z,4.18
2023-01-02T14:59:38.327Z,3.75
2023-01-02T15:02:16.188Z,5.57
2023-01-02T15:04:50.319Z,2.75
2023-01-02T15:07:20.723Z,2.88
2023-01-02T15:09:56.364Z,2.08
2023-01-02T15:12:45.118Z,5.07
2023-01-02T15:15:18.191Z,2.97
2023-01-02T15:17:50.686Z,2.92
2023-01-02T15:20:23.795Z,3.88
2023-01-02T15:22:56.617Z,3.83
2023-01-02T15:25:40.185Z,3.55
2023-01-02T15:28:33.369Z,7.03
2023-01-02T15:31:12.444Z,1.98
2023-01-02T15:33:40.666Z,7.90
2023-01-02T15:36:18.264Z,3.03
2023-01-02T15:38:47.201Z,2.33
2023-01-02T15:41:19.639Z,4.97
2023-01-02T15:44:07.561Z,4.50
2023-01-02T15:46:35.558Z,2.97
2023-01-02T15:49:04.963Z,1.85
2023-01-02T15:51:40.961Z,5.15
2023-01-02T15:54:15.548Z,4.63
2023-01-02T15:56:43.325Z,4.13
2023-01-02T15:59:34.229Z,4.20
2023-01-02T16:02:03.203Z,4.03
2023-01-02T16:04:33.582Z,3.15
2023-01-02T16:07:23.189Z,3.20
2023-01-02T16:09:56.368Z,2.72
2023-01-02T16:12:24.458Z,3.17
2023-01-02T16:14:56.158Z,5.60
2023-01-02T16:17:31.083Z,3.25
2023-01-02T16:20:01.826Z,2.90
2023-01-02T16:22:44.731Z,40.97
2023-01-02T16:25:29.069Z,15.45
2023-01-02T16:28:35.247Z,4.55
2023-01-02T16:31:16.744Z,5.03
2023-01-02T16:33:48.436Z,7.03
2023-01-02T16:36:16.079Z,10.82
2023-01-02T16:38:49.624Z,16.10
2023-01-02T16:41:45.071Z,21.02
2023-01-02T16:44:15.018Z,25.35
2023-01-02T16:49:17.652Z,14.75
2023-01-02T16:51:48.087Z,20.30
2023-01-02T16:54:17.167Z,16.52
2023-01-02T16:56:44.726Z,16.53
2023-01-02T16:59:12.584Z,19.77
2023-01-02T17:01:40.358Z,15.32
2023-01-02T17:04:08.345Z,10.60
2023-01-02T17:06:36.071Z,15.15
2023-01-02T17:09:03.953Z,19.05
2023-01-02T17:11:31.775Z,18.83
2023-01-02T17:14:01.127Z,21.70
2023-01-02T17:16:29.040Z,13.82
2023-01-02T17:18:59.529Z,21.75
2023-01-02T17:21:32.563Z,15.10
2023-01-02T17:24:00.688Z,10.48
2023-01-02T17:26:28.519Z,18.33
2023-01-02T17:28:56.158Z,15.63
2023-01-02T17:31:26.747Z,13.82
2023-01-02T17:33:54.858Z,18.48
2023-01-02T17:36:22.886Z,14.07
2023-01-02T17:38:50.719Z,22.00
2023-01-02T17:41:18.622Z,24.02
2023-01-02T17:44:02.559Z,24.20
2023-01-02T17:49:21.116Z,22.65
2023-01-02T17:51:49.017Z,19.08
2023-01-02T17:54:17.081Z,21.70
2023-01-02T17:56:45.240Z,29.58
2023-01-02T17:59:14.073Z,20.50
2023-01-02T18:01:41.698Z,22.48
2023-01-02T18:04:09.494Z,22.25
2023-01-02T18:06:37.097Z,26.10
2023-01-02T18:09:05.712Z,21.45
2023-01-02T18:11:34.675Z,21.55
2023-01-02T18:14:03.609Z,21.25
2023-01-02T18:16:37.618Z,25.10
2023-01-02T18:19:13.581Z,23.08
2023-01-02T18:21:44.827Z,15.88
2023-01-02T18:24:29.903Z,14.80
2023-01-02T18:27:13.996Z,11.80
2023-01-02T18:29:42.169Z,17.80
2023-01-02T18:32:24.055Z,10.65
2023-01-02T18:34:59.090Z,9.90
2023-01-02T18:37:29.159Z,9.73
2023-01-02T18:40:00.180Z,8.60
2023-01-02T18:42:33.618Z,8.13
2023-01-02T18:45:01.399Z,5.13
2023-01-02T18:47:36.527Z,8.90
2023-01-02T18:50:16.964Z,7.53
2023-01-02T18:52:49.230Z,6.95
2023-01-02T18:55:25.142Z,8.98
2023-01-02T18:58:22.775Z,5.28
2023-01-02T19:00:53.631Z,15.38
2023-01-02T19:03:25.424Z,10.95
2023-01-02T19:05:53.570Z,7.72
2023-01-02T19:08:55.317Z,4.82
2023-01-02T19:11:53.563Z,6.45
2023-01-02T19:14:26.137Z,5.32
2023-01-02T19:17:16.132Z,3.78
2023-01-02T19:19:44.929Z,5.05
2023-01-02T19:22:22.602Z,3.85
2023-01-02T19:24:50.894Z,3.72
2023-01-02T19:27:29.803Z,5.13
2023-01-02T19:29:57.526Z,4.87
2023-01-02T19:32:34.615Z,6.25
2023-01-02T19:35:08.177Z,5.40
2023-01-02T19:37:40.747Z,9.15
2023-01-02T19:40:19.364Z,5.43
2023-01-02T19:42:52.538Z,5.60
2023-01-02T19:45:26.300Z,5.47
2023-01-02T19:47:54.438Z,4.50
2023-01-02T19:50:25.000Z,3.58
2023-01-02T19:52:53.221Z,4.07
2023-01-02T19:55:20.912Z,6.40
2023-01-02T19:57:48.629Z,5.28
2023-01-02T20:00:19.248Z,3.38
2023-01-02T20:02:52.280Z,4.28
2023-01-02T20:05:23.865Z,6.00
2023-01-02T20:07:52.757Z,5.78
2023-01-02T20:10:23.657Z,7.35
2023-01-02T20:12:51.424Z,5.80
2023-01-02T20:15:23.665Z,5.38
2023-01-02T20:17:53.127Z,6.55
2023-01-02T20:20:24.066Z,4.63
2023-01-02T20:22:52.481Z,5.65
2023-01-02T20:25:24.435Z,5.30
2023-01-02T20:27:54.314Z,4.68
2023-01-02T20:30:24.977Z,6.80
2023-01-02T20:32:57.015Z,4.03
2023-01-02T20:35:25.002Z,4.43
2023-01-02T20:37:52.661Z,5.07
2023-01-02T20:40:20.694Z,5.20
2023-01-02T20:42:48.304Z,4.90
2023-01-02T20:45:16.721Z,5.88
2023-01-02T20:47:44.706Z,5.55
2023-01-02T20:50:13.064Z,13.73
2023-01-02T20:52:40.938Z,6.30
2023-01-02T20:55:09.269Z,7.97
2023-01-02T20:57:40.271Z,8.73
2023-01-02T21:00:12.024Z,7.97
2023-01-02T21:02:39.998Z,8.43
2023-01-02T21:05:11.249Z,8.48
2023-01-02T21:07:45.476Z,9.45
2023-01-02T21:10:13.456Z,14.18
2023-01-02T21:12:59.774Z,14.10
2023-01-02T21:15:45.032Z,15.52
2023-01-02T21:18:24.873Z,13.02
2023-01-02T21:20:58.274Z,18.83
2023-01-02T21:23:30.423Z,16.23
2023-01-02T21:26:02.475Z,18.17
2023-01-02T21:28:33.349Z,21.08
2023-01-02T21:31:03.983Z,21.92
2023-01-02T21:33:32.121Z,16.85
2023-01-02T21:36:14.145Z,17.40
2023-01-02T21:38:42.961Z,20.33
2023-01-02T21:41:29.717Z,22.02
2023-01-02T21:43:57.386Z,17.90
2023-01-02T21:46:25.159Z,21.27
2023-01-02T21:48:52.882Z,24.10
2023-01-02T21:51:27.714Z,20.30
2023-01-02T21:53:58.391Z,20.33
2023-01-02T21:56:26.666Z,18.88
2023-01-02T21:58:55.252Z,70.70
2023-01-02T22:01:23.099Z,16.90
2023-01-02T22:03:51.115Z,19.25
2023-01-02T22:06:21.738Z,18.20
2023-01-02T22:08:49.559Z,15.35
2023-01-02T22:11:36.601Z,20.65
2023-01-02T22:14:04.322Z,20.23
2023-01-02T22:16:32.135Z,18.90
2023-01-02T22:18:59.896Z,21.25
2023-01-02T22:21:27.515Z,24.08
2023-01-02T22:23:55.368Z,18.67
2023-01-02T22:26:24.159Z,20.88
2023-01-02T22:28:52.233Z,17.60
2023-01-02T22:31:19.846Z,16.27
2023-01-02T22:33:48.574Z,15.85
2023-01-02T22:36:17.091Z,17.33
2023-01-02T22:39:17.430Z,17.30
2023-01-02T22:41:42.189Z,17.70
2023-01-02T22:44:16.000Z,14.15
2023-01-02T22:46:49.169Z,22.75
2023-01-02T22:49:20.255Z,21.15
2023-01-02T22:52:06.455Z,17.67
2023-01-02T22:54:34.841Z,19.73
2023-01-02T22:57:02.394Z,16.20
2023-01-02T22:59:30.070Z,18.40
2023-01-02T23:01:58.376Z,18.95
2023-01-02T23:04:26.048Z,19.08
2023-01-02T23:07:22.900Z,15.98
2023-01-02T23:09:42.173Z,18.05
2023-01-02T23:12:09.680Z,16.15
2023-01-02T23:14:37.464Z,21.83
2023-01-02T23:17:23.536Z,16.35
2023-01-02T23:19:51.310Z,24.63
2023-01-02T23:22:18.908Z,18.75
2023-01-02T23:24:46.610Z,20.98
2023-01-02T23:27:14.267Z,22.83
2023-01-02T23:29:42.303Z,22.00
2023-01-02T23:32:16.460Z,20.33
2023-01-02T23:34:44.293Z,25.40
2023-01-02T23:37:12.111Z,19.67
2023-01-02T23:39:40.074Z,27.17
2023-01-02T23:42:07.833Z,22.50
2023-01-02T23:44:35.802Z,21.17
2023-01-02T23:47:09.026Z,24.15
2023-01-02T23:49:38.444Z,18.25
2023-01-02T23:52:06.168Z,19.13
2023-01-02T23:54:33.758Z,17.48
2023-01-02T23:57:01.597Z,19.15
2023-01-02T23:59:29.370Z,18.67
